ADDS METAR Data INFO
IDs: Format: Raw Decoded Include TAF

Data at: 0302 UTC 17 Jan 2018

KTAZ 170255Z AUTO 27008KT 10SM SCT018 M14/M17 A3065 RMK AO2 T11401170
KTAZ 170235Z AUTO 27008KT 10SM BKN018 M14/M17 A3065 RMK AO2 T11361169
KTAZ 170215Z AUTO 28010KT 10SM OVC018 M13/M17 A3065 RMK AO2 T11321166
KTAZ 170155Z AUTO 27008KT 10SM OVC018 M13/M16 A3065 RMK AO2 T11301165
KTAZ 170135Z AUTO 28008KT 10SM OVC018 M13/M16 A3065 RMK AO2 T11301164
KTAZ 170115Z AUTO 29011KT 10SM OVC018 M13/M16 A3065 RMK AO2 T11301165
KTAZ 170055Z AUTO 29011KT 10SM OVC016 M13/M16 A3065 RMK AO2 T11301163
KTAZ 170035Z AUTO 28010KT 10SM OVC016 M13/M16 A3065 RMK AO2 T11301162
KTAZ 170015Z AUTO 28006KT 10SM OVC016 M13/M16 A3064 RMK AO2 T11311164
KTAZ 162355Z AUTO 29009KT 10SM OVC016 M13/M16 A3064 RMK AO2 T11321164 11130 21157
KTAZ 162335Z AUTO 29008KT 5SM -SN OVC016 M13/M16 A3063 RMK AO2 T11311157
KTAZ 162315Z AUTO 28006KT 3SM -SN OVC018 M13/M16 A3063 RMK AO2 T11321157
KTAZ 162255Z AUTO 29009KT 3SM -SN OVC020 M13/M16 A3063 RMK AO2 T11321161
KTAZ 162235Z AUTO 28009KT 4SM -SN OVC018 M13/M16 A3062 RMK AO2 T11311164
KTAZ 162215Z AUTO 29009KT 4SM -SN OVC018 M13/M16 A3062 RMK AO2 T11301164
KTAZ 162155Z AUTO 29011KT 4SM -SN OVC018 M13/M16 A3062 RMK AO2 T11301164
KTAZ 162135Z AUTO 28010KT 5SM HZ OVC016 M13/M16 A3062 RMK AO2 T11301165
KTAZ 162115Z AUTO 27010G15KT 5SM -SN OVC018 M13/M17 A3060 RMK AO2 T11321169
KTAZ 162055Z AUTO 26010KT 7SM -SN OVC018 M13/M17 A3060 RMK AO2 T11331170
KTAZ 162035Z AUTO 27008KT 10SM OVC018 M13/M17 A3060 RMK AO2 T11351175
KTAZ 162015Z AUTO 30009KT 10SM OVC018 M13/M17 A3060 RMK AO2 T11351174
KTAZ 161955Z AUTO 29008KT 10SM OVC018 M14/M18 A3060 RMK AO2 T11401181
KTAZ 161935Z AUTO 28011KT 10SM OVC020 M14/M19 A3060 RMK AO2 T11441186
KTAZ 161915Z AUTO 29009G14KT 10SM SCT022 SCT050 M15/M19 A3060 RMK AO2 T11461188
KTAZ 161855Z AUTO 29011KT 10SM SCT050 M15/M20 A3060 RMK AO2 T11551196
KTAZ 161835Z AUTO 27013KT 10SM SCT012 OVC050 M15/M19 A3060 RMK AO2 T11551194
KTAZ 161815Z AUTO 29011G16KT 7SM SCT012 OVC048 M16/M20 A3060 RMK AO2 T11571198
KTAZ 161755Z AUTO 28012KT 7SM SCT012 OVC048 M16/M20 A3060 RMK AO2 T11561197 11156 21200
KTAZ 161735Z AUTO 29015G19KT 7SM SCT012 BKN037 OVC046 M16/M20 A3061 RMK AO2 T11581199
KTAZ 161715Z AUTO 29012G17KT 7SM -SN OVC037 M16/M20 A3062 RMK AO2 T11621202
KTAZ 161655Z AUTO 29010KT 7SM BKN037 M17/M21 A3062 RMK AO2 T11661207
KTAZ 161635Z AUTO 28013G18KT 10SM CLR M17/M21 A3063 RMK AO2 T11701212
KTAZ 161615Z AUTO 29010KT 7SM -SN SCT012 BKN026 M17/M21 A3063 RMK AO2 T11751215
KTAZ 161555Z AUTO 29013KT 4SM -SN OVC026 M18/M21 A3063 RMK AO2 T11771215
KTAZ 161535Z AUTO 29011KT 5SM -SN OVC024 M18/M22 A3063 RMK AO2 T11801218
KTAZ 161515Z AUTO 28014G17KT 5SM -SN OVC028 M18/M22 A3063 RMK AO2 T11831223
KTAZ 161455Z AUTO 27011KT 4SM -SN OVC026 M19/M22 A3062 RMK AO2 T11861225
KTAZ 161435Z AUTO 28011G15KT 5SM -SN OVC024 M18/M22 A3062 RMK AO2 T11851222
KTAZ 161415Z AUTO 28011KT 10SM -SN OVC024 M19/M22 A3061 RMK AO2 T11861223
KTAZ 161355Z AUTO 28014G19KT 10SM OVC024 M19/M22 A3060 RMK AO2 T11871224
KTAZ 161335Z AUTO 27013KT 10SM OVC024 M19/M22 A3060 RMK AO2 T11871224
KTAZ 161315Z AUTO 28011G16KT 10SM -SN SCT026 OVC041 M19/M22 A3060 RMK AO2 T11881222
KTAZ 161255Z AUTO 27010KT 10SM -SN BKN041 M19/M23 A3060 RMK AO2 T11951226
KTAZ 161235Z AUTO 27009KT 10SM SCT035 M20/M23 A3060 RMK AO2 T12001231
KTAZ 161215Z AUTO 27009KT 10SM CLR M20/M23 A3059 RMK AO2 T12001231
KTAZ 161155Z AUTO 27009KT 10SM CLR M20/M23 A3058 RMK AO2 T11991230 11175 21199
KTAZ 161135Z AUTO 27008KT 10SM CLR M20/M23 A3058 RMK AO2 T11971230
KTAZ 161115Z AUTO 27008KT 10SM CLR M20/M23 A3058 RMK AO2 T11961230
KTAZ 161055Z AUTO 27008KT 10SM CLR M20/M23 A3057 RMK AO2 T11961230
KTAZ 161035Z AUTO 27008KT 10SM CLR M19/M23 A3057 RMK AO2 T11951230
KTAZ 161015Z AUTO 27008KT 10SM CLR M19/M23 A3057 RMK AO2 T11931230
KTAZ 160955Z AUTO 27010KT 10SM CLR M19/M23 A3057 RMK AO2 T11931230
KTAZ 160935Z AUTO 28009KT 10SM CLR M19/M23 A3056 RMK AO2 T11901227
KTAZ 160915Z AUTO 27009KT 10SM CLR M19/M23 A3056 RMK AO2 T11891226
KTAZ 160855Z AUTO 28010G17KT 10SM CLR M19/M22 A3056 RMK AO2 T11861225
KTAZ 160835Z AUTO 28011KT 10SM SCT010 SCT014 M19/M22 A3056 RMK AO2 T11871222
KTAZ 160815Z AUTO 27009KT 10SM CLR M18/M22 A3056 RMK AO2 T11851221
KTAZ 160755Z AUTO 29008KT 10SM CLR M18/M22 A3055 RMK AO2 T11851219
KTAZ 160735Z AUTO 29009KT 10SM SCT013 SCT018 M18/M21 A3055 RMK AO2 T11851215
KTAZ 160715Z AUTO 28008KT 10SM OVC017 M18/M21 A3055 RMK AO2 T11831215
KTAZ 160655Z AUTO 28006KT 10SM BKN018 BKN023 M18/M22 A3055 RMK AO2 T11801220
KTAZ 160635Z AUTO 28007KT 10SM CLR M18/M22 A3055 RMK AO2 T11791222
KTAZ 160615Z AUTO 29010KT 10SM SCT017 M18/M22 A3055 RMK AO2 T11761217
KTAZ 160555Z AUTO 28009G16KT 10SM BKN017 M17/M21 A3055 RMK AO2 T11751212 11137 21175 410301175
KTAZ 160535Z AUTO 28009G14KT 10SM SCT019 M17/M21 A3055 RMK AO2 T11721210
KTAZ 160515Z AUTO 28010G14KT 10SM SCT021 M17/M21 A3055 RMK AO2 T11711212
KTAZ 160455Z AUTO 29009KT 10SM SCT025 M17/M21 A3055 RMK AO2 T11671212
KTAZ 160435Z AUTO 29008KT 10SM SCT023 M16/M21 A3054 RMK AO2 T11651210
KTAZ 160415Z AUTO 29008KT 7SM SCT012 BKN022 M16/M19 A3053 RMK AO2 T11631194
KTAZ 160355Z AUTO 28008KT 10SM SCT022 SCT027 M16/M19 A3054 RMK AO2 T11621193
KTAZ 160335Z AUTO 28008KT 10SM SCT018 SCT027 M16/M19 A3053 RMK AO2 T11611194
KTAZ 160315Z AUTO 28010KT 10SM BKN022 M16/M19 A3051 RMK AO2 T11581195
KTAZ 160255Z AUTO 29008KT 10SM OVC024 M16/M20 A3051 RMK AO2 T11581198
KTAZ 160235Z AUTO 27006KT 10SM SCT024 BKN029 M16/M20 A3051 RMK AO2 T11591200
KTAZ 160215Z AUTO 28011KT 10SM CLR M15/M20 A3050 RMK AO2 T11531196
KTAZ 160155Z AUTO 28009KT 10SM CLR M15/M20 A3050 RMK AO2 T11531197
KTAZ 160135Z AUTO 29010KT 10SM CLR M15/M20 A3050 RMK AO2 T11501196
KTAZ 160115Z AUTO 29011G15KT 10SM CLR M15/M19 A3050 RMK AO2 T11481192
KTAZ 160055Z AUTO 29010KT 10SM CLR M15/M19 A3048 RMK AO2 T11461192
KTAZ 160035Z AUTO 29009KT 10SM CLR M14/M19 A3048 RMK AO2 T11421188
KTAZ 160015Z AUTO 29011KT 10SM CLR M14/M19 A3047 RMK AO2 T11401186
KTAZ 152355Z AUTO 29011KT 10SM CLR M14/M18 A3046 RMK AO2 T11371180 11096 21137
KTAZ 152335Z AUTO 29010G18KT 10SM CLR M13/M18 A3045 RMK AO2 T11331176
KTAZ 152315Z AUTO 27013G16KT 10SM CLR M13/M17 A3044 RMK AO2 T11271170
KTAZ 152255Z AUTO 29010KT 10SM CLR M13/M17 A3043 RMK AO2 T11301172
KTAZ 152235Z AUTO 28011KT 10SM CLR M12/M17 A3042 RMK AO2 T11231173
KTAZ 152215Z AUTO 29016G19KT 10SM SCT015 SCT020 SCT029 M12/M16 A3041 RMK AO2 T11171165
KTAZ 152155Z AUTO 28015G20KT 7SM BKN012 BKN020 M11/M15 A3040 RMK AO2 T11131155
KTAZ 152135Z AUTO 29019G23KT 4SM HZ SCT012 OVC018 M11/M15 A3038 RMK AO2 T11111151
KTAZ 152115Z AUTO 30016G19KT 10SM BKN018 BKN026 M10/M15 A3036 RMK AO2 T11051154
KTAZ 152055Z AUTO 29014G17KT 10SM BKN017 BKN026 M10/M15 A3035 RMK AO2 T11051152
KTAZ 152035Z AUTO 30013G19KT 4SM -SN BKN018 OVC026 M10/M14 A3034 RMK AO2 T10991136
KTAZ 152015Z AUTO 29016G22KT 7SM SCT014 BKN021 OVC027 M10/M15 A3034 RMK AO2 T10961150
KTAZ 151955Z AUTO 28017G22KT 10SM SCT012 BKN019 BKN025 M10/M15 A3033 RMK AO2 T11041154
KTAZ 151935Z AUTO 29017G22KT 10SM BKN017 BKN022 M10/M15 A3032 RMK AO2 T11011150
KTAZ 151915Z AUTO 28014G21KT 7SM BKN014 BKN024 M10/M14 A3032 RMK AO2 T11011141
KTAZ 151855Z AUTO 28015KT 7SM OVC014 M10/M14 A3032 RMK AO2 T11011141
KTAZ 151835Z AUTO 27015G20KT 5SM HZ OVC014 M10/M14 A3031 RMK AO2 T11051144
KTAZ 151815Z AUTO 28015G19KT 4SM HZ OVC016 M10/M14 A3032 RMK AO2 T11031141
KTAZ 151755Z AUTO 28010G21KT 7SM OVC016 M10/M15 A3032 RMK AO2 T11051146 11030 21111
KTAZ 151735Z AUTO 28017G20KT 10SM BKN012 BKN030 M10/M15 A3032 RMK AO2 T11051148
KTAZ 151715Z AUTO 29016G24KT 10SM BKN012 BKN039 M11/M15 A3032 RMK AO2 T11091151
KTAZ 151655Z AUTO 28015G22KT 10SM BKN012 BKN041 M11/M15 A3032 RMK AO2 T11091148
KTAZ 151635Z AUTO 29016G23KT 10SM SCT012 OVC041 M11/M15 A3032 RMK AO2 T11101148
KTAZ 151615Z AUTO 27019G25KT 10SM OVC041 M10/M14 A3032 RMK AO2 T11051141
KTAZ 151555Z AUTO 28016G24KT 10SM OVC039 M10/M13 A3029 RMK AO2 T10981133
KTAZ 151535Z AUTO 28020G25KT 10SM OVC035 M08/M12 A3028 RMK AO2 T10841117
KTAZ 151515Z AUTO 28015G22KT 10SM OVC033 M06/M09 A3025 RMK AO2 T10651092